DAL788 KFLL-KTPA
Flight info
| Callsign | DAL788 |
|---|---|
| Flight time | N/A |
| Altitude | 24000 |
| Route | BNICE2 COREA BLFRG3 |
| Aircraft | A320/M-SDE3FGHIRWY/LB1 |
Departure
| Time | 2026-05-04 01:22 |
|---|---|
| Airport | Fort Lauderdale Hollywood International Airport (KFLL) |
Arrival
| Time | N/A |
|---|---|
| Airport | Tampa International Airport (KTPA) |
| Time | Latitude | Longitude | Altitude | Speed | Heading |
|---|---|---|---|---|---|
| 2026-05-04 00:56 | 26.07395 | -80.14294 | 17 ft | 0 kts | 196° |
| 2026-05-04 01:06 | 26.07403 | -80.14292 | 16 ft | 4 kts | 198° |
| 2026-05-04 01:06 | 26.07428 | -80.14281 | 17 ft | 4 kts | 202° |
| 2026-05-04 01:06 | 26.07453 | -80.14270 | 16 ft | 4 kts | 208° |
| 2026-05-04 01:06 | 26.07475 | -80.14253 | 18 ft | 4 kts | 230° |
| 2026-05-04 01:07 | 26.07486 | -80.14229 | 16 ft | 2 kts | 269° |
| 2026-05-04 01:07 | 26.07486 | -80.14227 | 16 ft | 0 kts | 270° |
| 2026-05-04 01:09 | 26.07486 | -80.14232 | 16 ft | 1 kts | 270° |
| 2026-05-04 01:09 | 26.07486 | -80.14236 | 16 ft | 0 kts | 270° |
| 2026-05-04 01:10 | 26.07486 | -80.14249 | 16 ft | 9 kts | 270° |
| 2026-05-04 01:10 | 26.07487 | -80.14335 | 16 ft | 11 kts | 271° |
| 2026-05-04 01:10 | 26.07488 | -80.14413 | 16 ft | 10 kts | 270° |
| 2026-05-04 01:11 | 26.07487 | -80.14516 | 16 ft | 14 kts | 269° |
| 2026-05-04 01:11 | 26.07488 | -80.14628 | 16 ft | 15 kts | 270° |
| 2026-05-04 01:11 | 26.07502 | -80.14744 | 16 ft | 16 kts | 305° |
| 2026-05-04 01:11 | 26.07562 | -80.14847 | 17 ft | 17 kts | 274° |
| 2026-05-04 01:12 | 26.07561 | -80.14987 | 16 ft | 19 kts | 269° |
| 2026-05-04 01:12 | 26.07560 | -80.15146 | 16 ft | 21 kts | 271° |
| 2026-05-04 01:12 | 26.07565 | -80.15319 | 16 ft | 23 kts | 271° |
| 2026-05-04 01:12 | 26.07565 | -80.15507 | 16 ft | 25 kts | 269° |
| 2026-05-04 01:13 | 26.07565 | -80.15707 | 16 ft | 27 kts | 271° |
| 2026-05-04 01:13 | 26.07568 | -80.15917 | 16 ft | 28 kts | 270° |
| 2026-05-04 01:13 | 26.07568 | -80.16136 | 17 ft | 29 kts | 270° |
| 2026-05-04 01:13 | 26.07568 | -80.16319 | 17 ft | 14 kts | 270° |
| 2026-05-04 01:14 | 26.07568 | -80.16434 | 17 ft | 16 kts | 270° |
| 2026-05-04 01:14 | 26.07566 | -80.16547 | 16 ft | 14 kts | 268° |
| 2026-05-04 01:14 | 26.07567 | -80.16629 | 16 ft | 7 kts | 292° |
| 2026-05-04 01:14 | 26.07586 | -80.16639 | 16 ft | 0 kts | 353° |
| 2026-05-04 01:21 | 26.07630 | -80.16645 | 17 ft | 12 kts | 353° |
| 2026-05-04 01:21 | 26.07695 | -80.16610 | 20 ft | 11 kts | 76° |
| 2026-05-04 01:21 | 26.07694 | -80.16537 | 19 ft | 6 kts | 89° |
| 2026-05-04 01:22 | 26.07696 | -80.16440 | 20 ft | 38 kts | 89° |
| 2026-05-04 01:22 | 26.07694 | -80.15851 | 19 ft | 110 kts | 90° |
| 2026-05-04 01:22 | 26.07687 | -80.14782 | 55 ft | 159 kts | 88° |
| 2026-05-04 01:22 | 26.07696 | -80.13600 | 779 ft | 150 kts | 88° |
| 2026-05-04 01:23 | 26.07725 | -80.12419 | 1397 ft | 156 kts | 86° |
| 2026-05-04 01:23 | 26.07776 | -80.11194 | 1931 ft | 166 kts | 85° |
| 2026-05-04 01:23 | 26.08054 | -80.09875 | 2273 ft | 186 kts | 66° |
| 2026-05-04 01:23 | 26.08731 | -80.08562 | 2560 ft | 208 kts | 53° |
| 2026-05-04 01:24 | 26.09768 | -80.07291 | 2874 ft | 235 kts | 39° |
| 2026-05-04 01:24 | 26.11210 | -80.06280 | 3337 ft | 257 kts | 21° |
| 2026-05-04 01:24 | 26.12945 | -80.05577 | 3969 ft | 271 kts | 17° |
| 2026-05-04 01:24 | 26.14792 | -80.05097 | 4865 ft | 275 kts | 2° |
| 2026-05-04 01:25 | 26.15627 | -80.05059 | 5246 ft | 276 kts | 355° |
| 2026-05-04 01:25 | 26.15944 | -80.05073 | 5389 ft | 276 kts | 352° |
| 2026-05-04 01:25 | 26.17824 | -80.05496 | 6277 ft | 277 kts | 337° |
| 2026-05-04 01:25 | 26.19652 | -80.06211 | 7151 ft | 280 kts | 335° |
| 2026-05-04 01:26 | 26.21346 | -80.07244 | 8018 ft | 278 kts | 318° |
| 2026-05-04 01:26 | 26.22690 | -80.08770 | 8948 ft | 275 kts | 302° |
| 2026-05-04 01:26 | 26.22840 | -80.09007 | 9077 ft | 274 kts | 300° |
| 2026-05-04 01:26 | 26.23282 | -80.09846 | 9509 ft | 273 kts | 293° |
| 2026-05-04 01:27 | 26.23996 | -80.11779 | 10309 ft | 278 kts | 288° |
| 2026-05-04 01:27 | 26.24731 | -80.13873 | 10609 ft | 302 kts | 288° |
| 2026-05-04 01:27 | 26.25440 | -80.16127 | 11113 ft | 313 kts | 281° |
| 2026-05-04 01:27 | 26.25823 | -80.18528 | 11817 ft | 317 kts | 277° |
| 2026-05-04 01:28 | 26.26170 | -80.20969 | 12597 ft | 321 kts | 277° |
| 2026-05-04 01:28 | 26.26523 | -80.23438 | 13389 ft | 324 kts | 277° |
| 2026-05-04 01:28 | 26.26881 | -80.25925 | 14129 ft | 327 kts | 277° |
| 2026-05-04 01:28 | 26.27241 | -80.28432 | 14824 ft | 329 kts | 277° |
| 2026-05-04 01:29 | 26.27601 | -80.30956 | 15517 ft | 331 kts | 276° |
| 2026-05-04 01:29 | 26.27962 | -80.33501 | 16214 ft | 333 kts | 276° |
| 2026-05-04 01:29 | 26.28246 | -80.35515 | 16751 ft | 335 kts | 276° |